Time;durP1;ratioP1;P1;durP2;ratioP2;P2;SDS_P1;SDS_P2;PMS_P1;PMS_P2;Temp;Humidity;BMP_temperature;BMP_pressure;BME280_temperature;BME280_humidity;BME280_pressure;Samples;Min_cycle;Max_cycle;Signal;HPM_P1;HPM_P2
2022/01/03 00:01:40;;;;;;;7.57;2.58;;;;;;;11.96;100.00;100733.19;5053560;28;20160;-72
2022/01/03 00:04:09;;;;;;;12.93;3.75;;;;;;;12.00;100.00;100733.16;5037324;28;20478;-72
2022/01/03 00:06:36;;;;;;;5.53;1.98;;;;;;;11.93;100.00;100742.31;5051404;28;20144;-73
2022/01/03 00:09:03;;;;;;;17.80;4.28;;;;;;;11.99;100.00;100737.94;5046782;28;20399;-73
2022/01/03 00:11:29;;;;;;;10.60;3.50;;;;;;;12.04;100.00;100725.59;5047132;28;20141;-74
2022/01/03 00:13:56;;;;;;;13.13;4.40;;;;;;;11.90;100.00;100736.78;5061724;28;20121;-73
2022/01/03 00:16:24;;;;;;;5.75;2.65;;;;;;;12.03;100.00;100727.59;5040802;28;20100;-72
2022/01/03 00:18:52;;;;;;;7.22;2.85;;;;;;;11.98;100.00;100738.34;5052662;28;20053;-73
2022/01/03 00:21:25;;;;;;;2.97;1.25;;;;;;;11.99;100.00;100740.72;5044380;28;20155;-72
2022/01/03 00:24:10;;;;;;;14.23;2.78;;;;;;;11.93;100.00;100752.63;5062087;28;20048;-71
2022/01/03 00:26:38;;;;;;;6.50;2.63;;;;;;;11.97;100.00;100742.28;5036986;28;20152;-72
2022/01/03 00:29:14;;;;;;;13.32;3.58;;;;;;;11.96;100.00;100740.72;5046917;28;20131;-73
2022/01/03 00:31:42;;;;;;;14.57;2.70;;;;;;;12.01;100.00;100748.59;5045492;28;20049;-74
2022/01/03 00:34:11;;;;;;;14.90;3.40;;;;;;;12.02;100.00;100750.19;5050188;28;20168;-73
2022/01/03 00:36:38;;;;;;;6.85;2.60;;;;;;;11.97;100.00;100748.63;5048658;28;20139;-72
2022/01/03 00:39:08;;;;;;;6.93;2.03;;;;;;;11.91;100.00;100752.25;5048492;28;20059;-74
2022/01/03 00:41:39;;;;;;;9.75;2.85;;;;;;;11.96;100.00;100754.59;5048372;28;20136;-72
2022/01/03 00:44:06;;;;;;;8.60;3.28;;;;;;;11.95;100.00;100753.00;5054410;28;20480;-73
2022/01/03 00:46:34;;;;;;;6.88;2.28;;;;;;;11.97;100.00;100745.06;5048716;28;20140;-74
2022/01/03 00:49:02;;;;;;;9.48;2.35;;;;;;;11.92;100.00;100767.69;5040272;28;20106;-73
2022/01/03 00:51:30;;;;;;;9.60;2.05;;;;;;;11.97;100.00;100750.59;5039840;28;20094;-74
2022/01/03 00:53:57;;;;;;;9.48;2.55;;;;;;;11.92;100.00;100749.03;5054471;28;20053;-72
2022/01/03 00:56:37;;;;;;;5.15;2.03;;;;;;;11.94;100.00;100757.75;5042418;28;20185;-73
2022/01/03 00:59:03;;;;;;;7.78;2.55;;;;;;;11.93;99.94;100760.94;5041474;28;20135;-72
2022/01/03 01:01:31;;;;;;;5.05;2.22;;;;;;;11.91;99.87;100760.56;5048604;28;20132;-75
2022/01/03 01:04:00;;;;;;;13.88;3.17;;;;;;;11.88;100.00;100770.47;5039800;28;20505;-73
2022/01/03 01:06:32;;;;;;;14.90;3.88;;;;;;;11.89;100.00;100762.94;5043700;28;20053;-72
2022/01/03 01:09:01;;;;;;;9.55;2.63;;;;;;;11.94;100.00;100762.50;5047495;28;20051;-71
2022/01/03 01:11:29;;;;;;;9.23;2.67;;;;;;;11.87;100.00;100777.22;5046568;28;20107;-74
2022/01/03 01:13:58;;;;;;;9.93;2.42;;;;;;;11.91;100.00;100771.66;5061101;28;20676;-73
2022/01/03 01:16:25;;;;;;;4.88;1.75;;;;;;;11.90;100.00;100786.69;5057775;28;20052;-72
2022/01/03 01:18:53;;;;;;;8.15;2.22;;;;;;;11.88;100.00;100778.00;5046485;28;20237;-71
2022/01/03 01:21:20;;;;;;;5.45;1.67;;;;;;;11.90;100.00;100781.16;5044075;28;20436;-72
2022/01/03 01:23:50;;;;;;;18.33;4.32;;;;;;;11.91;100.00;100788.28;5047594;28;20052;-73
2022/01/03 01:29:09;;;;;;;15.25;4.10;;;;;;;11.71;100.00;100803.84;5046362;28;20048;-72
2022/01/03 01:31:40;;;;;;;6.43;1.50;;;;;;;11.77;100.00;100785.56;5047435;28;20057;-72
2022/01/03 01:34:08;;;;;;;18.80;3.30;;;;;;;11.79;100.00;100775.69;5047152;28;20049;-72
2022/01/03 01:36:36;;;;;;;16.88;3.45;;;;;;;11.76;100.00;100781.22;5047284;28;20053;-72
2022/01/03 01:39:06;;;;;;;3.22;2.17;;;;;;;11.71;100.00;100792.75;5039877;28;20643;-72
2022/01/03 01:41:37;;;;;;;7.05;1.77;;;;;;;11.73;100.00;100787.56;5046410;28;20132;-71
2022/01/03 01:44:08;;;;;;;12.48;2.38;;;;;;;11.74;100.00;100786.41;5042687;28;20080;-72
2022/01/03 01:46:43;;;;;;;11.98;3.33;;;;;;;11.71;100.00;100795.53;5038211;28;20045;-71
2022/01/03 01:49:15;;;;;;;12.35;2.08;;;;;;;11.64;100.00;100829.59;5039860;28;20053;-72
2022/01/03 01:51:45;;;;;;;15.32;3.40;;;;;;;11.67;100.00;100792.75;5037272;28;20144;-73
2022/01/03 01:54:15;;;;;;;7.60;1.35;;;;;;;11.71;100.00;100792.75;5042267;28;20612;-71
2022/01/03 01:56:44;;;;;;;13.10;2.88;;;;;;;11.68;100.00;100788.00;5052477;28;20056;-72
2022/01/03 01:59:21;;;;;;;14.90;2.40;;;;;;;11.60;100.00;100803.03;5058192;28;20581;-74
2022/01/03 02:01:47;;;;;;;17.15;3.45;;;;;;;11.61;100.00;100788.00;5041842;28;20048;-72
2022/01/03 02:04:31;;;;;;;12.00;2.55;;;;;;;11.60;100.00;100805.81;5056850;28;20053;-72
2022/01/03 02:07:43;;;;;;;19.30;3.05;;;;;;;11.73;100.00;100793.13;5058166;28;20426;-72
2022/01/03 02:10:15;;;;;;;13.10;2.63;;;;;;;11.64;100.00;100814.97;5047305;28;20877;-71
2022/01/03 02:12:46;;;;;;;17.35;3.20;;;;;;;11.64;100.00;100796.31;5044180;28;20501;-71
2022/01/03 02:15:15;;;;;;;24.45;4.70;;;;;;;11.62;100.00;100809.00;5062542;28;20147;-74
2022/01/03 02:17:47;;;;;;;16.45;2.85;;;;;;;11.65;100.00;100810.97;5058978;28;20568;-72
2022/01/03 02:20:17;;;;;;;15.32;2.83;;;;;;;11.68;100.00;100794.31;5037969;28;20041;-72
2022/01/03 02:22:44;;;;;;;16.35;3.08;;;;;;;11.69;100.00;100820.06;5052126;28;20498;-71
2022/01/03 02:25:14;;;;;;;10.73;2.22;;;;;;;11.67;100.00;100814.94;5040997;28;20136;-73
2022/01/03 02:27:42;;;;;;;18.45;3.67;;;;;;;11.58;100.00;100828.38;5041011;28;20898;-74
2022/01/03 02:30:11;;;;;;;18.63;2.75;;;;;;;11.62;100.00;100817.31;5050484;28;20051;-72
2022/01/03 02:32:38;;;;;;;13.30;3.20;;;;;;;11.60;100.00;100826.00;5053800;28;20491;-72
2022/01/03 02:35:06;;;;;;;13.80;2.65;;;;;;;11.61;100.00;100822.06;5059590;28;20058;-72
2022/01/03 02:37:32;;;;;;;7.82;1.67;;;;;;;11.64;100.00;100820.50;5047821;28;20049;-73
2022/01/03 02:39:59;;;;;;;21.67;3.60;;;;;;;11.57;100.00;100832.34;5039244;28;20131;-71
2022/01/03 02:42:29;;;;;;;16.42;3.67;;;;;;;11.51;100.00;100822.09;5054237;28;20106;-72
2022/01/03 02:45:13;;;;;;;16.38;2.90;;;;;;;11.55;100.00;100817.31;5056135;28;20666;-72
2022/01/03 02:47:44;;;;;;;10.98;2.42;;;;;;;11.59;100.00;100815.31;5072429;28;20489;-71
2022/01/03 02:50:12;;;;;;;19.75;2.95;;;;;;;11.58;100.00;100816.53;5056460;28;20104;-73
2022/01/03 02:52:39;;;;;;;13.32;2.50;;;;;;;11.49;100.00;100814.19;5054698;28;20053;-72
2022/01/03 02:55:07;;;;;;;5.47;1.45;;;;;;;11.57;100.00;100815.72;5045986;28;20053;-74
2022/01/03 02:57:42;;;;;;;24.77;4.82;;;;;;;11.44;100.00;100809.03;5038893;28;20087;-74
2022/01/03 03:00:13;;;;;;;9.30;2.17;;;;;;;11.60;100.00;100812.16;5050793;28;20123;-71
2022/01/03 03:02:40;;;;;;;15.05;2.60;;;;;;;11.46;100.00;100812.22;5048812;28;20053;-72
2022/01/03 03:05:09;;;;;;;16.67;3.15;;;;;;;11.44;100.00;100819.34;5047869;28;20137;-72
2022/01/03 03:07:37;;;;;;;7.82;2.78;;;;;;;11.47;100.00;100819.31;5057005;28;20136;-73
2022/01/03 03:10:07;;;;;;;19.88;3.42;;;;;;;11.38;100.00;100834.78;5067360;28;20055;-73
2022/01/03 03:12:33;;;;;;;13.13;3.03;;;;;;;11.43;100.00;100826.84;5057844;28;20400;-72
2022/01/03 03:15:00;;;;;;;18.58;3.65;;;;;;;11.36;100.00;100829.66;5054206;28;20098;-72
2022/01/03 03:17:27;;;;;;;10.95;2.70;;;;;;;11.45;100.00;100815.38;5055373;28;20147;-73
2022/01/03 03:20:05;;;;;;;14.07;3.33;;;;;;;11.38;100.00;100816.19;5046172;28;20585;-71
2022/01/03 03:22:32;;;;;;;17.98;3.83;;;;;;;11.39;100.00;100816.97;5042066;28;20057;-72
2022/01/03 03:24:59;;;;;;;8.20;2.75;;;;;;;11.46;100.00;100825.25;5066585;28;20048;-71
2022/01/03 03:27:26;;;;;;;17.42;2.25;;;;;;;11.43;100.00;100821.31;5050709;28;20088;-73
2022/01/03 03:30:22;;;;;;;11.93;2.42;;;;;;;11.41;100.00;100815.38;5064096;28;20421;-71
2022/01/03 03:32:52;;;;;;;22.00;3.45;;;;;;;11.37;100.00;100819.38;5053032;28;20691;-71
2022/01/03 03:35:18;;;;;;;22.20;4.25;;;;;;;11.42;100.00;100821.72;5054103;28;20053;-72
2022/01/03 03:37:45;;;;;;;12.25;2.25;;;;;;;11.51;100.00;100835.94;5048630;28;20706;-74
2022/01/03 03:40:12;;;;;;;15.85;4.28;;;;;;;11.40;100.00;100835.16;5048249;28;20049;-72
2022/01/03 03:42:41;;;;;;;16.15;3.20;;;;;;;11.46;100.00;100841.88;5055237;28;20136;-71
2022/01/03 03:45:09;;;;;;;23.75;4.07;;;;;;;11.32;100.00;100839.16;5060421;28;20045;-73
2022/01/03 03:47:36;;;;;;;18.80;2.80;;;;;;;11.43;100.00;100834.38;5069784;28;20618;-72
2022/01/03 03:50:04;;;;;;;27.08;3.70;;;;;;;11.43;100.00;100826.84;5043395;28;20045;-73
2022/01/03 03:52:31;;;;;;;11.15;2.85;;;;;;;11.45;100.00;100841.13;5041494;28;20048;-72
2022/01/03 03:54:57;;;;;;;17.08;2.88;;;;;;;11.40;100.00;100827.66;5062702;28;20139;-72
2022/01/03 03:57:24;;;;;;;7.35;2.00;;;;;;;11.44;100.00;100841.50;5069393;28;20060;-74
2022/01/03 03:59:51;;;;;;;22.13;3.70;;;;;;;11.36;100.00;100848.25;5065625;28;20064;-73
2022/01/03 04:02:17;;;;;;;14.25;2.83;;;;;;;11.40;100.00;100844.28;5069322;28;20131;-72
2022/01/03 04:04:44;;;;;;;11.20;2.58;;;;;;;11.44;100.00;100827.66;5055928;28;20145;-74
2022/01/03 04:07:11;;;;;;;9.63;2.15;;;;;;;11.39;100.00;100839.94;5046829;28;20060;-72
2022/01/03 04:09:37;;;;;;;26.73;4.25;;;;;;;11.32;100.00;100844.69;5047670;28;20048;-72
2022/01/03 04:12:05;;;;;;;20.83;3.00;;;;;;;11.37;100.00;100841.53;5034567;28;20143;-70
2022/01/03 04:14:32;;;;;;;20.33;2.97;;;;;;;11.33;100.00;100854.56;5048148;28;20053;-71
2022/01/03 04:16:59;;;;;;;23.55;3.20;;;;;;;11.37;100.00;100847.84;5056033;28;20501;-74
2022/01/03 04:19:25;;;;;;;21.65;3.65;;;;;;;11.31;100.00;100827.28;5054983;28;20481;-72
2022/01/03 04:21:52;;;;;;;19.25;3.45;;;;;;;11.34;100.00;100832.00;5055076;28;20474;-71
2022/01/03 04:24:19;;;;;;;7.07;2.42;;;;;;;11.37;100.00;100836.00;5060960;28;20493;-72
2022/01/03 04:26:45;;;;;;;11.65;2.47;;;;;;;11.31;100.00;100829.28;5055228;28;20056;-73
2022/01/03 04:29:12;;;;;;;9.63;1.90;;;;;;;11.35;100.00;100846.66;5068815;28;20131;-72
2022/01/03 04:31:39;;;;;;;12.02;2.15;;;;;;;11.34;100.00;100839.56;5063614;28;20561;-73
2022/01/03 04:34:05;;;;;;;14.75;2.22;;;;;;;11.37;100.00;100833.22;5048875;28;20110;-71
2022/01/03 04:36:32;;;;;;;11.05;2.42;;;;;;;11.45;100.00;100835.56;5047375;28;20063;-73
2022/01/03 04:38:59;;;;;;;10.15;1.90;;;;;;;11.37;100.00;100833.22;5049529;28;20408;-75
2022/01/03 04:41:26;;;;;;;22.67;3.20;;;;;;;11.43;100.00;100842.69;5045303;28;20079;-71
2022/01/03 04:43:53;;;;;;;18.85;3.47;;;;;;;11.22;100.00;100839.97;5048573;28;20132;-72
2022/01/03 04:46:19;;;;;;;20.23;3.38;;;;;;;11.25;100.00;100830.84;5047070;28;20052;-72
2022/01/03 04:48:46;;;;;;;20.60;2.47;;;;;;;11.41;100.00;100834.00;5042241;28;20056;-71
2022/01/03 04:51:13;;;;;;;7.35;1.60;;;;;;;11.34;100.00;100828.47;5065184;28;20493;-72
2022/01/03 04:53:40;;;;;;;14.18;2.83;;;;;;;11.23;100.00;100834.03;5065102;28;20098;-72
2022/01/03 04:56:11;;;;;;;16.33;2.65;;;;;;;11.26;100.00;100824.13;5068758;28;20056;-73
2022/01/03 04:58:39;;;;;;;22.92;4.70;;;;;;;11.14;100.00;100825.31;5037672;28;20486;-72
2022/01/03 05:01:06;;;;;;;27.75;6.10;;;;;;;11.09;100.00;100828.50;5055835;28;20131;-74
2022/01/03 05:03:33;;;;;;;22.92;3.25;;;;;;;11.24;100.00;100826.53;5062839;28;20572;-71
2022/01/03 05:06:02;;;;;;;25.98;4.55;;;;;;;11.22;100.00;100832.44;5039903;28;20160;-70
2022/01/03 05:08:29;;;;;;;18.00;3.25;;;;;;;11.34;100.00;100812.63;5044780;28;20601;-71
2022/01/03 05:11:00;;;;;;;14.75;4.13;;;;;;;11.23;100.00;100825.72;5039531;28;20049;-72
2022/01/03 05:13:31;;;;;;;11.93;2.42;;;;;;;11.32;100.00;100825.31;5057063;28;20049;-72
2022/01/03 05:15:59;;;;;;;26.25;3.67;;;;;;;11.28;100.00;100822.56;5033401;28;20585;-73
2022/01/03 05:18:27;;;;;;;6.53;1.67;;;;;;;11.22;100.00;100820.56;5061203;28;20213;-73
2022/01/03 05:20:54;;;;;;;7.93;1.30;;;;;;;11.27;100.00;100817.41;5046632;28;20131;-74
2022/01/03 05:23:21;;;;;;;12.38;2.53;;;;;;;11.22;100.00;100824.16;5067235;28;20061;-72
2022/01/03 05:25:47;;;;;;;8.15;1.67;;;;;;;11.21;100.00;100813.47;5068459;28;20083;-73
2022/01/03 05:28:14;;;;;;;14.02;2.45;;;;;;;11.22;100.00;100813.06;5045589;28;20041;-72
2022/01/03 05:30:42;;;;;;;11.13;3.10;;;;;;;11.15;100.00;100813.09;5041473;28;20608;-73
2022/01/03 05:33:09;;;;;;;16.08;2.63;;;;;;;11.19;100.00;100808.31;5047045;28;20084;-72
2022/01/03 05:35:36;;;;;;;30.42;3.58;;;;;;;11.18;100.00;100808.72;5048328;28;20164;-74
2022/01/03 05:38:03;;;;;;;8.60;2.20;;;;;;;11.16;100.00;100802.78;5068232;28;20076;-72
2022/01/03 05:40:29;;;;;;;14.50;2.58;;;;;;;11.17;100.00;100793.31;5067890;28;20151;-71
2022/01/03 05:42:56;;;;;;;25.77;4.78;;;;;;;11.07;100.00;100813.50;5041585;28;20060;-74
2022/01/03 05:45:25;;;;;;;9.05;1.88;;;;;;;11.13;100.00;100804.38;5058978;28;20052;-72
2022/01/03 05:47:52;;;;;;;14.68;2.33;;;;;;;11.21;100.00;100805.16;5066573;28;20052;-74
2022/01/03 05:50:19;;;;;;;13.23;3.78;;;;;;;11.15;100.00;100812.28;5067435;28;20147;-72
2022/01/03 05:52:46;;;;;;;15.50;3.40;;;;;;;11.12;100.00;100824.16;5067063;28;20053;-70
2022/01/03 05:55:12;;;;;;;7.50;1.77;;;;;;;11.15;100.00;100817.81;5061422;28;20774;-73
2022/01/03 05:57:39;;;;;;;21.63;3.28;;;;;;;11.16;100.00;100819.38;5054953;28;20052;-74
2022/01/03 06:00:09;;;;;;;10.93;2.40;;;;;;;11.16;100.00;100831.28;5062171;28;20427;-72
2022/01/03 06:02:40;;;;;;;11.00;2.47;;;;;;;11.16;100.00;100813.84;5064611;28;20052;-74
2022/01/03 06:05:10;;;;;;;17.80;4.20;;;;;;;11.13;100.00;100811.91;5051613;28;20049;-74
2022/01/03 06:07:37;;;;;;;16.92;2.03;;;;;;;11.22;100.00;100809.50;5047753;28;20057;-73
2022/01/03 06:10:08;;;;;;;8.73;2.28;;;;;;;11.13;100.00;100796.06;5047282;28;20055;-72
2022/01/03 06:12:35;;;;;;;15.15;2.30;;;;;;;11.23;100.00;100798.03;5051314;28;20107;-73
2022/01/03 06:15:02;;;;;;;16.10;2.85;;;;;;;11.12;100.00;100788.94;5047032;28;20062;-74
2022/01/03 06:17:29;;;;;;;15.05;3.67;;;;;;;11.07;100.00;100785.81;5056087;28;20725;-69
2022/01/03 06:19:55;;;;;;;15.43;2.58;;;;;;;11.14;100.00;100780.25;5049758;28;20574;-73
2022/01/03 06:22:22;;;;;;;7.47;1.65;;;;;;;11.16;100.00;100781.41;5045651;28;20137;-72
2022/01/03 06:24:48;;;;;;;9.25;2.35;;;;;;;11.14;100.00;100785.78;5065680;28;20052;-72
2022/01/03 06:27:16;;;;;;;15.40;3.58;;;;;;;11.13;100.00;100778.69;5060328;28;20151;-73
2022/01/03 06:29:43;;;;;;;19.45;3.22;;;;;;;11.19;100.00;100785.38;5049101;28;20402;-72
2022/01/03 06:32:09;;;;;;;3.60;1.88;;;;;;;11.13;100.00;100787.00;5045692;28;20045;-71
2022/01/03 06:34:36;;;;;;;30.92;3.95;;;;;;;11.22;100.00;100782.59;5045766;28;20053;-72
2022/01/03 06:37:02;;;;;;;15.98;2.53;;;;;;;11.12;100.00;100783.41;5049407;28;20169;-72
2022/01/03 06:39:29;;;;;;;6.68;2.35;;;;;;;11.15;100.00;100785.38;5046354;28;20059;-70
2022/01/03 06:41:55;;;;;;;13.05;3.28;;;;;;;11.08;100.00;100788.19;5045795;28;20103;-74
2022/01/03 06:44:22;;;;;;;11.65;3.42;;;;;;;11.17;100.00;100771.16;5047367;28;20136;-72
2022/01/03 06:46:49;;;;;;;22.65;3.97;;;;;;;11.06;100.00;100784.19;5042344;28;20140;-73
2022/01/03 06:49:15;;;;;;;16.20;3.00;;;;;;;11.20;100.00;100782.19;5065177;28;20048;-72
2022/01/03 06:51:42;;;;;;;7.72;2.45;;;;;;;11.19;100.00;100777.06;5051767;28;20056;-72
2022/01/03 06:54:13;;;;;;;19.05;4.03;;;;;;;11.11;100.00;100789.34;5034397;28;20057;-72
2022/01/03 06:56:41;;;;;;;13.60;3.85;;;;;;;11.23;100.00;100800.00;5047075;28;20118;-71
2022/01/03 06:59:08;;;;;;;12.00;2.30;;;;;;;11.16;100.00;100795.25;5047165;28;20057;-73
2022/01/03 07:01:35;;;;;;;14.23;2.92;;;;;;;11.18;100.00;100806.75;5046805;28;20052;-72
2022/01/03 07:04:02;;;;;;;19.65;3.45;;;;;;;11.20;100.00;100798.03;5046001;28;20108;-72
2022/01/03 07:06:30;;;;;;;20.33;3.97;;;;;;;11.21;100.00;100800.41;5047405;28;20049;-73
2022/01/03 07:08:56;;;;;;;21.52;3.40;;;;;;;11.28;100.00;100785.75;5054461;28;20834;-73
2022/01/03 07:11:23;;;;;;;15.10;3.03;;;;;;;11.17;100.00;100790.53;5066105;28;20049;-71
2022/01/03 07:13:54;;;;;;;20.52;4.13;;;;;;;11.14;100.00;100775.47;5054409;28;20076;-73
2022/01/03 07:19:07;;;;;;;11.63;1.98;;;;;;;11.14;100.00;100794.09;5053476;28;20056;-73
2022/01/03 07:21:34;;;;;;;18.05;3.97;;;;;;;11.21;100.00;100799.63;5049143;28;20063;-73
2022/01/03 07:24:01;;;;;;;10.25;1.92;;;;;;;11.28;100.00;100783.78;5047944;28;20799;-73
2022/01/03 07:26:28;;;;;;;16.13;3.70;;;;;;;11.22;100.00;100776.25;5061135;28;20051;-73
2022/01/03 07:28:55;;;;;;;8.73;2.08;;;;;;;11.24;100.00;100776.66;5049531;28;20461;-72
2022/01/03 07:31:22;;;;;;;23.98;3.08;;;;;;;11.24;100.00;100782.19;5053502;28;20136;-71
2022/01/03 07:33:49;;;;;;;17.98;4.05;;;;;;;11.15;100.00;100781.81;5042634;28;20476;-73
2022/01/03 07:36:15;;;;;;;15.07;2.85;;;;;;;11.27;100.00;100768.31;5057736;28;20100;-72
2022/01/03 07:38:46;;;;;;;13.02;3.42;;;;;;;11.11;100.00;100779.06;5050806;28;20768;-73
2022/01/03 07:41:15;;;;;;;18.00;3.92;;;;;;;11.26;100.00;100779.81;5056918;28;20048;-72
2022/01/03 07:43:43;;;;;;;8.18;2.08;;;;;;;11.22;100.00;100784.56;5053426;28;20057;-73
2022/01/03 07:46:10;;;;;;;20.70;3.35;;;;;;;11.24;100.00;100782.97;5069750;28;20155;-73
2022/01/03 07:48:41;;;;;;;7.40;2.05;;;;;;;11.22;100.00;100782.59;5048581;28;20688;-72
2022/01/03 07:51:08;;;;;;;20.92;3.65;;;;;;;11.18;100.00;100787.38;5048649;28;20072;-73
2022/01/03 07:53:35;;;;;;;18.70;3.17;;;;;;;11.24;100.00;100782.97;5061243;28;20052;-72
2022/01/03 07:56:04;;;;;;;14.32;2.38;;;;;;;11.36;100.00;100784.53;5051033;28;20060;-72
2022/01/03 07:58:31;;;;;;;9.10;2.58;;;;;;;11.32;100.00;100772.66;5045883;28;20057;-74
2022/01/03 08:00:58;;;;;;;15.68;2.85;;;;;;;11.29;100.00;100779.81;5040542;28;20045;-72
2022/01/03 08:03:25;;;;;;;18.98;3.65;;;;;;;11.38;100.00;100765.53;5056346;28;20497;-73
2022/01/03 08:06:07;;;;;;;9.30;2.38;;;;;;;11.43;100.00;100776.19;5042656;28;20045;-72
2022/01/03 08:08:37;;;;;;;7.85;1.33;;;;;;;11.39;100.00;100775.41;5048078;28;20445;-74
2022/01/03 08:11:05;;;;;;;9.85;1.95;;;;;;;11.39;100.00;100778.19;5048809;28;20048;-72
2022/01/03 08:13:31;;;;;;;12.63;3.38;;;;;;;11.38;100.00;100773.84;5043638;28;20669;-73
2022/01/03 08:15:58;;;;;;;15.75;3.08;;;;;;;11.35;100.00;100785.72;5067446;28;20136;-74
2022/01/03 08:18:25;;;;;;;9.77;2.20;;;;;;;11.32;100.00;100767.13;5063463;28;20087;-72
2022/01/03 08:20:53;;;;;;;27.70;4.90;;;;;;;11.23;100.00;100800.78;5047754;28;20569;-73
2022/01/03 08:23:20;;;;;;;12.73;2.83;;;;;;;11.29;100.00;100782.56;5053044;28;20225;-72
2022/01/03 08:25:46;;;;;;;8.50;2.33;;;;;;;11.43;100.00;100790.03;5062346;28;20048;-73
2022/01/03 08:28:14;;;;;;;12.52;2.00;;;;;;;11.36;100.00;100784.53;5042974;28;20467;-71
2022/01/03 08:30:41;;;;;;;15.10;3.45;;;;;;;11.12;100.00;100785.38;5044566;28;20061;-72
2022/01/03 08:33:08;;;;;;;11.80;2.53;;;;;;;11.01;100.00;100773.53;5055639;28;20139;-71
2022/01/03 08:35:34;;;;;;;9.07;2.17;;;;;;;10.85;100.00;100757.38;5051738;28;20140;-73
2022/01/03 08:38:04;;;;;;;10.75;1.98;;;;;;;10.84;100.00;100760.53;5047638;28;20131;-72
2022/01/03 08:40:31;;;;;;;15.38;2.42;;;;;;;10.84;100.00;100764.09;5046037;28;20045;-71
2022/01/03 08:42:59;;;;;;;16.63;3.13;;;;;;;10.79;100.00;100755.38;5051926;28;20111;-71
2022/01/03 08:45:26;;;;;;;14.30;4.00;;;;;;;10.71;100.00;100781.50;5039903;28;20137;-71
2022/01/03 08:47:52;;;;;;;18.10;3.22;;;;;;;10.71;100.00;100762.13;5068610;28;20513;-73
2022/01/03 08:50:19;;;;;;;19.35;4.13;;;;;;;10.71;100.00;100762.13;5046929;28;20317;-73
2022/01/03 08:52:46;;;;;;;13.00;2.55;;;;;;;10.80;100.00;100784.66;5044920;28;20059;-71
2022/01/03 08:55:13;;;;;;;11.73;2.95;;;;;;;10.82;100.00;100776.72;5050116;28;20098;-72
2022/01/03 08:57:41;;;;;;;7.32;2.42;;;;;;;10.83;100.00;100781.88;5036887;28;20053;-71
2022/01/03 09:00:10;;;;;;;18.58;3.28;;;;;;;10.83;100.00;100779.09;5060714;28;20135;-73
2022/01/03 09:02:37;;;;;;;24.80;3.75;;;;;;;10.78;100.00;100787.03;5061331;28;20132;-71
2022/01/03 09:05:04;;;;;;;11.88;3.45;;;;;;;10.77;100.00;100782.69;5045304;28;20055;-73
2022/01/03 09:07:30;;;;;;;5.85;1.52;;;;;;;10.87;100.00;100771.56;5040675;28;20071;-72
2022/01/03 09:09:57;;;;;;;13.90;2.72;;;;;;;10.91;100.00;100789.00;5057175;28;20131;-72
2022/01/03 09:12:23;;;;;;;10.70;3.08;;;;;;;10.94;100.00;100798.47;5045875;28;20111;-71
2022/01/03 09:14:50;;;;;;;15.25;3.95;;;;;;;11.07;100.00;100783.03;5047602;28;20135;-72
2022/01/03 09:17:17;;;;;;;16.40;3.03;;;;;;;10.97;100.00;100792.91;5049627;28;20053;-71
2022/01/03 09:19:43;;;;;;;18.70;3.78;;;;;;;11.00;100.00;100785.81;5064334;28;20049;-72
2022/01/03 09:22:17;;;;;;;12.93;3.45;;;;;;;11.05;100.00;100785.41;5066416;28;20087;-71
2022/01/03 09:30:00;;;;;;;19.27;3.55;;;;;;;11.09;100.00;100769.56;5041164;28;20041;-71
2022/01/03 09:32:27;;;;;;;19.48;3.45;;;;;;;11.11;100.00;100768.00;5046672;28;20051;-71
2022/01/03 09:34:53;;;;;;;10.85;2.75;;;;;;;11.20;100.00;100775.88;5053927;28;20103;-71
2022/01/03 09:37:22;;;;;;;12.93;3.92;;;;;;;11.21;100.00;100783.78;5061574;28;20061;-71
2022/01/03 09:39:49;;;;;;;14.73;3.90;;;;;;;11.39;100.00;100776.22;5065904;28;20135;-71
2022/01/03 09:42:23;;;;;;;19.83;3.90;;;;;;;11.42;100.00;100771.84;5063002;28;20129;-70
2022/01/03 09:44:53;;;;;;;12.60;2.30;;;;;;;11.41;100.00;100786.91;5065778;28;20127;-71
2022/01/03 09:47:22;;;;;;;9.68;2.03;;;;;;;11.46;100.00;100773.41;5061515;28;20064;-71
2022/01/03 09:49:50;;;;;;;15.32;3.45;;;;;;;11.48;100.00;100790.41;5054388;28;20540;-74
2022/01/03 09:52:23;;;;;;;21.25;3.17;;;;;;;11.48;100.00;100784.09;5046515;28;20052;-72
2022/01/03 09:54:50;;;;;;;20.88;4.03;;;;;;;11.49;100.00;100783.69;5058235;28;20125;-72
2022/01/03 09:57:20;;;;;;;15.18;3.65;;;;;;;11.49;100.00;100782.91;5061524;28;20052;-71
2022/01/03 09:59:48;;;;;;;11.70;3.65;;;;;;;11.48;100.00;100775.78;5052735;28;20158;-71
2022/01/03 10:02:16;;;;;;;18.13;3.58;;;;;;;11.49;100.00;100775.38;5048982;28;20052;-70
2022/01/03 10:04:43;;;;;;;12.02;2.72;;;;;;;11.62;100.00;100771.00;5046671;28;20059;-70
2022/01/03 10:07:11;;;;;;;14.75;3.15;;;;;;;11.53;100.00;100765.06;5050153;28;20104;-71
2022/01/03 10:09:39;;;;;;;17.88;4.25;;;;;;;11.52;100.00;100769.03;5046271;28;20079;-73
2022/01/03 10:12:09;;;;;;;13.32;2.22;;;;;;;11.62;100.00;100768.25;5049927;28;20072;-72
2022/01/03 10:14:36;;;;;;;16.15;3.50;;;;;;;11.69;100.00;100765.44;5053266;28;20052;-72
2022/01/03 10:17:03;;;;;;;14.93;3.30;;;;;;;11.79;100.00;100770.13;5057106;28;20056;-71
2022/01/03 10:20:00;;;;;;;11.73;2.53;;;;;;;11.79;100.00;100755.47;5050636;28;20060;-72
2022/01/03 10:22:32;;;;;;;22.50;5.07;;;;;;;11.79;100.00;100756.28;5050173;28;20044;-73
2022/01/03 10:25:19;;;;;;;19.27;2.45;;;;;;;11.76;100.00;100751.53;5050674;28;20517;-73
2022/01/03 10:27:59;;;;;;;14.85;3.05;;;;;;;11.87;100.00;100755.03;5044901;28;20076;-72
2022/01/03 10:30:39;;;;;;;19.20;4.03;;;;;;;11.69;100.00;100750.78;5058784;28;20086;-72
2022/01/03 10:33:08;;;;;;;9.88;2.90;;;;;;;11.85;100.00;100715.81;5049717;28;20045;-72
2022/01/03 10:35:46;;;;;;;6.53;1.75;;;;;;;11.90;100.00;100709.06;5043584;28;20079;-72
2022/01/03 10:38:41;;;;;;;13.25;3.35;;;;;;;11.97;100.00;100714.56;5052576;28;20051;-73
2022/01/03 10:41:10;;;;;;;14.52;2.42;;;;;;;11.98;100.00;100730.78;5044933;28;20509;-72
2022/01/03 10:43:37;;;;;;;12.30;3.42;;;;;;;11.92;99.76;100726.09;5047980;28;20052;-75
2022/01/03 10:46:17;;;;;;;15.93;3.50;;;;;;;11.96;99.17;100726.84;5060744;28;20056;-73
2022/01/03 10:48:45;;;;;;;16.77;3.35;;;;;;;12.11;99.05;100711.69;5051006;28;20071;-73
2022/01/03 10:51:20;;;;;;;17.60;3.42;;;;;;;12.03;98.97;100710.97;5049051;28;20049;-71
2022/01/03 10:53:47;;;;;;;18.00;3.38;;;;;;;12.09;98.25;100708.53;5061791;28;20053;-72
2022/01/03 10:56:29;;;;;;;10.73;2.67;;;;;;;12.29;97.48;100699.25;5062673;28;20124;-75
2022/01/03 10:59:14;;;;;;;17.35;3.75;;;;;;;12.50;95.56;100710.19;5050641;28;20056;-72
2022/01/03 11:01:50;;;;;;;12.20;2.97;;;;;;;12.35;95.12;100705.16;5054414;28;20666;-72
2022/01/03 11:04:52;;;;;;;7.63;2.20;;;;;;;12.37;95.30;100709.13;5051695;28;20052;-72
2022/01/03 11:13:09;;;;;;;10.95;2.42;;;;;;;12.19;95.24;100722.31;5058249;28;20061;-72
2022/01/03 11:15:38;;;;;;;12.05;2.55;;;;;;;12.13;95.93;100695.44;5060406;28;20523;-71
2022/01/03 11:18:07;;;;;;;15.10;2.75;;;;;;;12.15;95.95;100693.06;5066147;28;20055;-72
2022/01/03 11:20:34;;;;;;;17.77;4.43;;;;;;;12.07;96.39;100702.59;5059527;28;20044;-72
2022/01/03 11:23:01;;;;;;;5.40;2.50;;;;;;;12.13;95.96;100687.13;5062891;28;20394;-74
2022/01/03 11:25:32;;;;;;;23.67;5.15;;;;;;;12.00;95.60;100702.66;5048844;28;20061;-73
2022/01/03 11:28:00;;;;;;;15.70;3.55;;;;;;;12.20;95.08;100704.50;5047447;28;20140;-72
2022/01/03 11:30:26;;;;;;;8.07;1.85;;;;;;;12.24;95.66;100710.00;5060812;28;20083;-71
2022/01/03 11:32:54;;;;;;;15.30;3.88;;;;;;;12.27;95.46;100698.09;5056547;28;20045;-72
2022/01/03 11:35:21;;;;;;;10.60;2.85;;;;;;;12.18;95.95;100697.75;5049557;28;20159;-72
2022/01/03 11:37:50;;;;;;;12.10;3.17;;;;;;;12.11;96.57;100693.06;5045479;28;20052;-72